Time;durP1;ratioP1;P1;durP2;ratioP2;P2;SDS_P1;SDS_P2;PMS_P1;PMS_P2;Temp;Humidity;BMP_temperature;BMP_pressure;BME280_temperature;BME280_humidity;BME280_pressure;Samples;Min_cycle;Max_cycle;Signal;HPM_P1;HPM_P2
2021/07/04 00:50:40;;;;;;;10.02;7.97;;;17.40;94.70;;;;;;4792739;29;20561;-94
2021/07/04 00:53:15;;;;;;;11.85;7.82;;;17.40;94.70;;;;;;4864492;29;20056;-94
2021/07/04 00:55:50;;;;;;;10.57;7.85;;;17.30;94.60;;;;;;4855355;29;20715;-94
2021/07/04 00:58:31;;;;;;;;;;;;;;;;;;;;;
2021/07/04 01:04:19;;;;;;;7.70;6.43;;;17.30;94.40;;;;;;4863104;29;20043;-93
2021/07/04 03:46:22;;;;;;;;;;;;;;;;;;;;;
2021/07/04 03:59:45;;;;;;;7.82;5.55;;;16.90;94.30;;;;;;4812612;29;20115;-95
2021/07/04 05:00:44;;;;;;;8.95;5.03;;;17.90;93.10;;;;;;4739628;30;20120;-94
2021/07/04 05:03:34;;;;;;;;;;;;;;;;;;;;;
2021/07/04 05:06:36;;;;;;;6.65;4.80;;;18.10;92.80;;;;;;4849121;29;20038;-94
2021/07/04 05:13:05;;;;;;;6.88;5.00;;;18.20;92.70;;;;;;4848917;29;20056;-94
2021/07/04 05:16:19;;;;;;;12.65;4.97;;;18.30;92.80;;;;;;4881362;29;20412;-93
2021/07/04 05:22:37;;;;;;;6.38;4.93;;;18.50;92.80;;;;;;4828636;29;20034;-95
2021/07/04 05:25:08;;;;;;;6.72;4.93;;;18.60;92.50;;;;;;4816486;29;20053;-93
2021/07/04 05:31:16;;;;;;;5.97;4.57;;;18.70;92.10;;;;;;4832156;29;20044;-94
2021/07/04 05:33:41;;;;;;;8.77;4.65;;;18.80;92.20;;;;;;4828887;29;20494;-94
2021/07/04 05:36:12;;;;;;;5.03;3.83;;;18.90;92.00;;;;;;4842447;29;20092;-94
2021/07/04 05:39:01;;;;;;;6.32;4.78;;;19.00;92.00;;;;;;4863408;29;20041;-95
2021/07/04 05:41:52;;;;;;;5.60;4.20;;;19.10;91.60;;;;;;4881848;29;20049;-94
2021/07/04 05:47:45;;;;;;;8.20;4.75;;;19.40;91.60;;;;;;4844765;29;20120;-94
2021/07/04 05:56:59;;;;;;;4.40;3.97;;;19.70;90.90;;;;;;4842771;29;20060;-93
2021/07/04 06:09:37;;;;;;;3.60;3.15;;;20.20;90.60;;;;;;4774000;30;20035;-93
2021/07/04 06:12:03;;;;;;;3.67;3.35;;;20.30;88.60;;;;;;4848116;29;20041;-94
2021/07/04 06:14:31;;;;;;;3.90;3.50;;;20.40;87.50;;;;;;4881767;29;20068;-94
2021/07/04 06:16:59;;;;;;;4.00;3.47;;;20.50;87.20;;;;;;4881697;29;20553;-94
2021/07/04 06:19:53;;;;;;;;;;;;;;;;;;;;;
2021/07/04 06:22:49;;;;;;;5.10;3.47;;;20.70;87.10;;;;;;4862409;29;20029;-94
2021/07/04 06:25:41;;;;;;;4.95;3.25;;;20.90;87.30;;;;;;4866161;29;20094;-94
2021/07/04 06:31:29;;;;;;;3.42;2.63;;;21.20;82.00;;;;;;4866486;29;20037;-93
2021/07/04 06:34:04;;;;;;;3.35;3.05;;;21.40;83.20;;;;;;4865616;29;20038;-94
2021/07/04 06:36:32;;;;;;;5.53;2.45;;;21.70;83.50;;;;;;4864977;29;20386;-94
2021/07/04 06:39:06;;;;;;;3.75;2.70;;;21.80;81.50;;;;;;4865459;29;20041;-95
2021/07/04 06:41:51;;;;;;;3.90;3.10;;;21.90;80.50;;;;;;4865644;29;20050;-94
2021/07/04 06:44:20;;;;;;;3.72;2.97;;;22.00;80.90;;;;;;4859423;29;20046;-95
2021/07/04 06:46:45;;;;;;;3.67;2.67;;;22.00;78.60;;;;;;4858815;29;20038;-93
2021/07/04 06:49:10;;;;;;;3.80;2.50;;;22.20;78.60;;;;;;4846773;29;20037;-93
2021/07/04 06:51:36;;;;;;;4.70;3.00;;;22.30;78.30;;;;;;4867372;29;20049;-91
2021/07/04 06:54:02;;;;;;;4.10;3.03;;;22.40;80.30;;;;;;4864431;29;20041;-92
2021/07/04 06:56:27;;;;;;;3.85;2.75;;;22.50;78.40;;;;;;4846484;29;20057;-93
2021/07/04 06:58:53;;;;;;;3.42;2.45;;;22.70;77.70;;;;;;4862418;29;20128;-92
2021/07/04 07:01:18;;;;;;;3.63;3.10;;;22.80;76.60;;;;;;4863599;29;20481;-92
2021/07/04 07:03:44;;;;;;;3.30;2.47;;;23.00;78.20;;;;;;4846949;29;20038;-91
2021/07/04 07:06:09;;;;;;;3.97;3.50;;;23.10;75.60;;;;;;4846838;29;20053;-92
2021/07/04 07:08:39;;;;;;;3.25;2.45;;;23.10;76.40;;;;;;4875905;29;20290;-91
2021/07/04 07:11:04;;;;;;;3.33;2.67;;;23.20;75.50;;;;;;4874765;29;20120;-91
2021/07/04 07:13:30;;;;;;;4.10;2.83;;;23.30;75.90;;;;;;4867585;29;20441;-93
2021/07/04 07:15:59;;;;;;;2.55;2.33;;;23.40;77.30;;;;;;4862414;29;20372;-93
2021/07/04 07:18:27;;;;;;;2.80;2.38;;;23.40;75.60;;;;;;4864962;29;20206;-93
2021/07/04 07:20:53;;;;;;;2.85;2.17;;;23.50;76.90;;;;;;4866369;29;20055;-93
2021/07/04 07:23:18;;;;;;;3.50;2.55;;;23.60;76.10;;;;;;4868732;29;20298;-93
2021/07/04 07:25:44;;;;;;;3.25;2.72;;;23.80;75.40;;;;;;4882944;29;20045;-91
2021/07/04 07:28:11;;;;;;;2.78;2.47;;;24.00;75.10;;;;;;4870593;29;20048;-91
2021/07/04 07:30:41;;;;;;;3.47;2.40;;;24.00;73.80;;;;;;4865204;29;20037;-93
2021/07/04 07:33:06;;;;;;;3.70;2.72;;;24.20;72.60;;;;;;4876736;29;20038;-91
2021/07/04 07:35:33;;;;;;;9.05;3.35;;;24.30;74.30;;;;;;4866882;29;21733;-93
2021/07/04 07:38:02;;;;;;;3.53;2.92;;;24.50;75.00;;;;;;4878524;29;20045;-94
2021/07/04 07:40:30;;;;;;;3.22;2.42;;;24.60;75.00;;;;;;4880886;29;20045;-95
2021/07/04 07:42:56;;;;;;;7.30;2.33;;;24.70;74.00;;;;;;4865566;29;20136;-93
2021/07/04 07:45:22;;;;;;;3.05;2.42;;;24.80;73.20;;;;;;4861756;29;20402;-88
2021/07/04 07:47:47;;;;;;;3.03;2.63;;;24.90;70.90;;;;;;4878941;29;20099;-93
2021/07/04 07:50:13;;;;;;;4.93;2.72;;;25.00;72.50;;;;;;4872554;29;20047;-91
2021/07/04 07:52:38;;;;;;;2.75;2.50;;;25.00;71.70;;;;;;4887679;29;20076;-93
2021/07/04 07:55:07;;;;;;;3.17;2.53;;;25.10;72.50;;;;;;4869031;29;20424;-96
2021/07/04 08:01:01;;;;;;;4.45;3.30;;;25.30;72.00;;;;;;4843620;29;20081;-88
2021/07/04 08:09:55;;;;;;;11.48;2.70;;;25.60;73.10;;;;;;4823303;29;20106;-92
2021/07/04 08:12:37;;;;;;;7.18;2.72;;;25.70;73.80;;;;;;4813901;29;20057;-95
2021/07/04 08:15:08;;;;;;;4.55;2.92;;;25.80;72.10;;;;;;4826592;29;20042;-95
2021/07/04 08:17:34;;;;;;;4.30;3.00;;;26.00;73.40;;;;;;4841616;29;20124;-94
2021/07/04 08:19:59;;;;;;;3.78;2.50;;;26.10;72.70;;;;;;4881462;29;20079;-90
2021/07/04 08:23:11;;;;;;;12.85;2.70;;;26.20;71.80;;;;;;4856239;29;20045;-95
2021/07/04 08:25:49;;;;;;;4.22;2.50;;;26.30;72.30;;;;;;4861722;29;20128;-94
2021/07/04 08:28:42;;;;;;;8.13;2.50;;;26.50;70.60;;;;;;4868897;29;20401;-94
2021/07/04 08:31:47;;;;;;;3.28;2.30;;;26.70;69.80;;;;;;4861552;29;20042;-95
2021/07/04 08:35:02;;;;;;;;;;;;;;;;;;;;;
2021/07/04 08:37:27;;;;;;;3.45;2.55;;;26.80;68.40;;;;;;4862975;29;20037;-94
2021/07/04 08:40:05;;;;;;;2.60;2.33;;;26.80;68.30;;;;;;4871005;29;20382;-94
2021/07/04 08:42:52;;;;;;;2.80;2.38;;;26.80;67.70;;;;;;4868558;29;21435;-95
2021/07/04 08:45:18;;;;;;;5.63;2.45;;;26.90;66.60;;;;;;4873049;29;20692;-93
2021/07/04 08:48:13;;;;;;;6.35;2.58;;;27.00;67.40;;;;;;4871719;29;20134;-94
2021/07/04 08:51:20;;;;;;;3.85;2.38;;;27.10;66.30;;;;;;4882503;29;20038;-96
2021/07/04 08:53:46;;;;;;;3.33;2.53;;;27.20;68.60;;;;;;4866141;29;20056;-93
2021/07/04 08:56:18;;;;;;;2.97;2.67;;;27.40;66.50;;;;;;4867355;29;20053;-94
2021/07/04 08:58:43;;;;;;;3.20;2.03;;;27.50;65.60;;;;;;4878227;29;20053;-93
2021/07/04 09:01:21;;;;;;;2.40;1.80;;;27.60;60.70;;;;;;4878143;29;20489;-91
2021/07/04 09:03:50;;;;;;;2.97;1.95;;;27.60;63.00;;;;;;4880437;29;20045;-92
2021/07/04 09:06:42;;;;;;;3.63;1.70;;;27.70;63.00;;;;;;4878299;29;20049;-91
2021/07/04 09:09:15;;;;;;;2.75;2.10;;;27.80;59.90;;;;;;4866630;29;20149;-90
2021/07/04 09:12:11;;;;;;;1.85;1.40;;;27.90;63.30;;;;;;4864164;29;20132;-93
2021/07/04 09:14:42;;;;;;;4.18;1.45;;;28.00;59.30;;;;;;4845815;29;20045;-89
2021/07/04 09:17:10;;;;;;;2.88;2.00;;;28.00;61.60;;;;;;4861213;29;20053;-91
2021/07/04 09:19:39;;;;;;;2.42;1.88;;;28.10;60.90;;;;;;4862247;29;20074;-91
2021/07/04 09:22:07;;;;;;;4.05;2.10;;;28.20;59.80;;;;;;4857907;29;20045;-91
2021/07/04 09:24:42;;;;;;;2.33;1.92;;;28.30;58.10;;;;;;4855248;29;20045;-91
2021/07/04 09:27:11;;;;;;;3.67;2.35;;;28.40;57.60;;;;;;4858968;29;20044;-90
2021/07/04 09:29:43;;;;;;;8.25;2.33;;;28.40;56.90;;;;;;4860613;29;20072;-91
2021/07/04 09:32:26;;;;;;;4.68;2.20;;;28.40;62.90;;;;;;4863395;29;20346;-90
2021/07/04 09:35:06;;;;;;;2.42;2.13;;;28.50;61.50;;;;;;4867833;29;20040;-91
2021/07/04 09:37:51;;;;;;;3.83;2.05;;;28.60;61.30;;;;;;4862806;29;20053;-94
2021/07/04 09:40:26;;;;;;;4.18;1.70;;;28.70;60.30;;;;;;4854987;29;20094;-89
2021/07/04 09:42:53;;;;;;;2.55;1.83;;;28.70;60.10;;;;;;4874470;29;20127;-88
2021/07/04 09:45:20;;;;;;;2.60;2.17;;;28.80;61.30;;;;;;4877301;29;20053;-87
2021/07/04 09:47:57;;;;;;;3.28;2.50;;;28.80;63.50;;;;;;4863150;29;20109;-88
2021/07/04 09:50:24;;;;;;;4.22;2.22;;;28.90;61.50;;;;;;4855920;29;20124;-87
2021/07/04 09:53:02;;;;;;;2.50;2.17;;;28.90;63.10;;;;;;4863465;29;20029;-87
2021/07/04 09:55:29;;;;;;;5.78;2.78;;;29.00;61.50;;;;;;4862590;29;20041;-87
2021/07/04 09:58:00;;;;;;;3.00;2.20;;;29.10;60.40;;;;;;4859806;29;20052;-87
2021/07/04 10:00:28;;;;;;;2.70;1.90;;;29.20;60.00;;;;;;4862365;29;20056;-87
2021/07/04 10:03:11;;;;;;;3.40;2.05;;;29.40;58.60;;;;;;4855948;29;20168;-86
2021/07/04 10:05:39;;;;;;;6.15;2.33;;;29.50;57.20;;;;;;4856311;29;20291;-85
2021/07/04 10:08:34;;;;;;;2.35;2.15;;;29.70;58.80;;;;;;4874233;29;20120;-85
2021/07/04 10:11:11;;;;;;;2.45;1.95;;;29.90;58.80;;;;;;4860130;29;20136;-88
2021/07/04 10:13:47;;;;;;;2.80;2.05;;;30.10;60.80;;;;;;4853514;29;20049;-84
2021/07/04 10:16:17;;;;;;;4.78;2.72;;;30.30;53.00;;;;;;4857325;29;20077;-86
2021/07/04 10:18:47;;;;;;;3.10;2.50;;;30.30;53.90;;;;;;4850669;29;20041;-85
2021/07/04 10:21:13;;;;;;;3.97;2.40;;;30.30;55.00;;;;;;4849208;29;20060;-85
2021/07/04 10:23:46;;;;;;;2.92;2.22;;;30.40;54.50;;;;;;4872003;29;20057;-85
2021/07/04 10:26:13;;;;;;;2.60;2.40;;;30.50;56.30;;;;;;4860503;29;20048;-85
2021/07/04 10:28:41;;;;;;;3.38;2.35;;;30.70;56.00;;;;;;4862012;29;20076;-85
2021/07/04 10:31:17;;;;;;;3.55;2.53;;;30.80;54.20;;;;;;4863672;29;20105;-86
2021/07/04 10:33:43;;;;;;;3.92;2.60;;;31.00;55.30;;;;;;4863165;29;20113;-85
2021/07/04 10:36:21;;;;;;;2.88;2.58;;;31.10;53.10;;;;;;4862473;29;20410;-86
2021/07/04 10:38:56;;;;;;;3.60;2.88;;;31.10;50.90;;;;;;4863411;29;20192;-86
2021/07/04 10:41:27;;;;;;;3.75;2.40;;;31.10;51.10;;;;;;4863732;29;20038;-85
2021/07/04 10:44:00;;;;;;;2.53;2.20;;;31.10;53.20;;;;;;4862546;29;20049;-85
2021/07/04 10:46:41;;;;;;;3.75;2.42;;;31.10;52.60;;;;;;4862689;29;20046;-86
2021/07/04 10:49:14;;;;;;;3.78;2.10;;;31.00;51.80;;;;;;4863459;29;20311;-85
2021/07/04 10:52:02;;;;;;;3.63;2.40;;;30.90;54.70;;;;;;4863498;29;20037;-86
2021/07/04 10:54:40;;;;;;;5.00;2.50;;;31.00;53.20;;;;;;4862840;29;20041;-85
2021/07/04 10:57:21;;;;;;;3.45;2.60;;;31.00;51.30;;;;;;4865971;29;20041;-86
2021/07/04 10:59:59;;;;;;;3.60;2.90;;;31.00;51.60;;;;;;4867154;29;20041;-86
2021/07/04 11:02:39;;;;;;;3.17;2.80;;;31.00;52.60;;;;;;4866965;29;20421;-85
2021/07/04 11:05:31;;;;;;;2.50;2.30;;;31.10;48.90;;;;;;4866327;29;20057;-85
2021/07/04 11:07:56;;;;;;;4.88;2.53;;;31.30;48.90;;;;;;4860595;29;20384;-85
2021/07/04 11:10:24;;;;;;;2.45;2.15;;;31.30;51.70;;;;;;4866656;29;20041;-86
2021/07/04 11:12:52;;;;;;;4.68;2.72;;;31.40;52.40;;;;;;4866556;29;20049;-86
2021/07/04 11:15:20;;;;;;;3.03;2.42;;;31.40;48.80;;;;;;4866076;29;20077;-86
2021/07/04 11:17:55;;;;;;;3.58;2.92;;;31.30;51.50;;;;;;4866044;29;20041;-86
2021/07/04 11:20:53;;;;;;;3.55;2.60;;;31.00;52.90;;;;;;4866905;29;20073;-86
2021/07/04 11:23:27;;;;;;;3.67;2.72;;;30.90;54.50;;;;;;4866190;29;20148;-86
2021/07/04 11:26:00;;;;;;;2.92;2.28;;;30.70;51.60;;;;;;4865534;29;20452;-87
2021/07/04 11:28:34;;;;;;;3.63;2.50;;;30.50;50.70;;;;;;4881388;29;20105;-86
2021/07/04 11:30:59;;;;;;;6.68;2.42;;;30.40;54.30;;;;;;4866549;29;20428;-86
2021/07/04 11:33:35;;;;;;;3.00;2.50;;;30.20;53.90;;;;;;4866176;29;20033;-86
2021/07/04 11:36:07;;;;;;;4.75;2.55;;;30.20;53.90;;;;;;4865434;29;20136;-87
2021/07/04 11:38:38;;;;;;;2.90;2.33;;;30.10;53.20;;;;;;4865803;29;20100;-87
2021/07/04 11:41:06;;;;;;;2.20;1.97;;;30.10;50.60;;;;;;4865659;29;20049;-87
2021/07/04 11:43:33;;;;;;;2.63;2.28;;;30.00;52.40;;;;;;4865694;29;20049;-86
2021/07/04 11:46:01;;;;;;;8.35;2.53;;;29.90;51.00;;;;;;4854152;29;20081;-87
2021/07/04 11:48:56;;;;;;;3.85;2.70;;;29.90;53.40;;;;;;4862421;29;20042;-86
2021/07/04 11:51:40;;;;;;;5.05;2.10;;;29.70;51.80;;;;;;4862285;29;20318;-86
2021/07/04 11:54:27;;;;;;;4.65;2.60;;;29.60;51.00;;;;;;4847727;29;20079;-87
2021/07/04 11:59:54;;;;;;;3.53;2.80;;;29.30;51.60;;;;;;4847616;29;20080;-86
2021/07/04 12:02:20;;;;;;;4.05;2.40;;;29.40;51.60;;;;;;4848090;29;20049;-86
2021/07/04 12:04:45;;;;;;;2.97;2.22;;;29.50;53.30;;;;;;4847882;29;20046;-86
2021/07/04 12:07:13;;;;;;;3.92;2.53;;;29.70;53.30;;;;;;4860975;29;20037;-85
2021/07/04 12:09:44;;;;;;;3.20;2.55;;;30.00;52.90;;;;;;4846755;29;20124;-85
2021/07/04 12:12:14;;;;;;;2.58;2.13;;;30.20;51.40;;;;;;4847514;29;20057;-86
2021/07/04 12:14:40;;;;;;;3.22;2.58;;;30.40;49.90;;;;;;4862311;29;20074;-85
2021/07/04 12:17:18;;;;;;;2.63;2.30;;;30.60;52.70;;;;;;4847412;29;20036;-85
2021/07/04 12:19:50;;;;;;;3.75;2.38;;;30.80;51.50;;;;;;4847143;29;20415;-85
2021/07/04 12:22:21;;;;;;;2.70;2.47;;;31.00;51.90;;;;;;4847365;29;20424;-85
2021/07/04 12:24:46;;;;;;;4.47;2.38;;;31.10;49.20;;;;;;4861885;29;20060;-86
2021/07/04 12:27:12;;;;;;;5.10;2.92;;;31.20;50.20;;;;;;4846644;29;20050;-85
2021/07/04 12:30:01;;;;;;;2.97;2.40;;;31.30;52.50;;;;;;4847450;29;20190;-85
2021/07/04 12:32:35;;;;;;;2.30;2.10;;;31.50;50.70;;;;;;4861473;29;20042;-85
2021/07/04 12:35:01;;;;;;;2.58;2.20;;;31.70;48.20;;;;;;4847508;29;20414;-85
2021/07/04 12:37:27;;;;;;;2.88;2.25;;;31.80;49.70;;;;;;4861688;29;20050;-85
2021/07/04 12:40:11;;;;;;;2.72;2.47;;;31.90;47.40;;;;;;4861576;29;20446;-86
2021/07/04 12:42:37;;;;;;;2.83;2.20;;;31.90;45.70;;;;;;4846883;29;20045;-85
2021/07/04 12:45:23;;;;;;;3.40;2.45;;;31.90;47.60;;;;;;4847170;29;20066;-85
2021/07/04 12:48:02;;;;;;;4.85;2.60;;;31.90;48.80;;;;;;4845947;29;20130;-86
2021/07/04 12:50:38;;;;;;;2.95;2.40;;;31.80;45.40;;;;;;4861819;29;20045;-86
2021/07/04 12:53:03;;;;;;;4.55;2.47;;;31.70;45.20;;;;;;4846481;29;20038;-86
2021/07/04 12:55:39;;;;;;;2.70;2.30;;;31.60;49.10;;;;;;4861754;29;20302;-87
2021/07/04 12:58:34;;;;;;;3.58;2.50;;;31.40;47.60;;;;;;4846383;29;20069;-86
2021/07/04 13:01:13;;;;;;;2.28;2.08;;;31.10;47.40;;;;;;4853017;29;20479;-87
2021/07/04 13:03:46;;;;;;;3.40;2.15;;;30.90;46.60;;;;;;4846140;29;20056;-86
2021/07/04 13:06:35;;;;;;;3.00;2.70;;;30.70;47.90;;;;;;4846357;29;20057;-86
2021/07/04 13:09:05;;;;;;;3.03;2.22;;;30.50;48.90;;;;;;4861083;29;20048;-86
2021/07/04 13:11:31;;;;;;;2.67;2.35;;;30.50;50.00;;;;;;4860849;29;20121;-85
2021/07/04 13:13:56;;;;;;;2.75;2.15;;;30.50;47.70;;;;;;4846761;29;20132;-85
2021/07/04 13:16:22;;;;;;;3.33;2.50;;;30.70;50.50;;;;;;4860833;29;20121;-85
2021/07/04 13:18:47;;;;;;;2.92;1.90;;;30.90;50.60;;;;;;4846427;29;20042;-85
2021/07/04 13:21:27;;;;;;;2.50;2.30;;;31.10;46.90;;;;;;4846477;29;20053;-85
2021/07/04 13:24:13;;;;;;;4.50;2.15;;;31.40;48.10;;;;;;4845708;29;20049;-85
2021/07/04 13:26:39;;;;;;;3.13;2.42;;;31.50;47.80;;;;;;4845697;29;20071;-85
2021/07/04 13:29:26;;;;;;;3.05;2.22;;;31.70;50.00;;;;;;4860883;29;20038;-85
2021/07/04 13:32:20;;;;;;;2.70;1.92;;;31.90;46.40;;;;;;4860673;29;20038;-84
2021/07/04 13:35:07;;;;;;;2.90;2.40;;;32.10;45.80;;;;;;4846279;29;20309;-85
2021/07/04 13:37:33;;;;;;;3.42;2.10;;;32.30;46.90;;;;;;4845790;29;20053;-85
2021/07/04 13:40:00;;;;;;;2.80;2.40;;;32.50;48.10;;;;;;4846026;29;20102;-85
2021/07/04 13:42:35;;;;;;;2.35;2.05;;;32.60;46.70;;;;;;4859835;29;20318;-85
2021/07/04 13:45:05;;;;;;;2.80;2.05;;;32.80;46.00;;;;;;4845925;29;20056;-85
2021/07/04 13:47:30;;;;;;;2.10;1.80;;;32.80;43.60;;;;;;4860702;29;20038;-85
2021/07/04 13:49:56;;;;;;;2.10;1.90;;;32.70;45.00;;;;;;4862743;29;20060;-85
2021/07/04 13:52:22;;;;;;;1.95;1.75;;;32.60;45.00;;;;;;4846228;29;20071;-85
2021/07/04 13:54:47;;;;;;;2.50;2.17;;;32.60;44.80;;;;;;4860043;29;20098;-85
2021/07/04 13:57:14;;;;;;;4.05;1.92;;;32.40;43.50;;;;;;4860356;29;20045;-85
2021/07/04 13:59:40;;;;;;;2.33;1.95;;;32.20;43.60;;;;;;4845016;29;20041;-85
2021/07/04 14:02:06;;;;;;;3.22;2.00;;;32.10;44.10;;;;;;4845610;29;20038;-85
2021/07/04 14:04:32;;;;;;;2.70;1.95;;;32.10;44.30;;;;;;4846104;29;20045;-85
2021/07/04 14:07:01;;;;;;;3.95;2.47;;;32.10;46.90;;;;;;4845466;29;20049;-85
2021/07/04 14:09:27;;;;;;;1.95;1.75;;;32.10;45.60;;;;;;4845586;29;20038;-85
2021/07/04 14:11:52;;;;;;;2.63;2.10;;;32.10;44.80;;;;;;4859797;29;20122;-85
2021/07/04 14:14:18;;;;;;;2.30;2.10;;;32.10;45.00;;;;;;4860352;29;20046;-85
2021/07/04 14:16:45;;;;;;;2.25;1.88;;;32.10;45.80;;;;;;4844927;29;20063;-86
2021/07/04 14:19:11;;;;;;;2.45;1.98;;;32.10;46.70;;;;;;4845347;29;20086;-86
2021/07/04 14:21:36;;;;;;;2.58;2.08;;;32.10;46.50;;;;;;4845357;29;20112;-85
2021/07/04 14:24:02;;;;;;;2.95;1.80;;;32.10;44.10;;;;;;4845099;29;20062;-85
2021/07/04 14:26:27;;;;;;;3.83;2.17;;;32.30;45.70;;;;;;4845424;29;20283;-85
2021/07/04 14:28:53;;;;;;;2.08;1.88;;;32.30;46.70;;;;;;4844811;29;20042;-85
2021/07/04 14:31:18;;;;;;;1.58;1.48;;;32.40;44.60;;;;;;4859593;29;20076;-85
2021/07/04 14:33:44;;;;;;;4.25;1.95;;;32.30;41.60;;;;;;4844787;29;20040;-85
2021/07/04 14:36:09;;;;;;;2.80;1.40;;;32.20;43.20;;;;;;4845148;29;20434;-85
2021/07/04 14:38:38;;;;;;;1.85;1.70;;;32.20;45.20;;;;;;4860019;29;20053;-87
2021/07/04 14:41:04;;;;;;;2.25;1.98;;;32.20;46.40;;;;;;4845005;29;20437;-86
2021/07/04 14:43:30;;;;;;;1.98;1.50;;;32.20;43.70;;;;;;4845401;29;20290;-85
2021/07/04 14:45:56;;;;;;;2.38;1.88;;;32.10;43.70;;;;;;4844765;29;20120;-86
2021/07/04 14:48:21;;;;;;;1.90;1.60;;;31.80;44.60;;;;;;4845104;29;20086;-86
2021/07/04 14:50:51;;;;;;;2.30;1.73;;;31.50;46.30;;;;;;4845194;29;20311;-86
2021/07/04 14:53:17;;;;;;;2.10;1.90;;;31.20;45.10;;;;;;4844633;29;20105;-85
2021/07/04 14:55:43;;;;;;;2.05;1.63;;;31.00;46.80;;;;;;4844692;29;20535;-85
2021/07/04 14:58:09;;;;;;;2.50;1.42;;;30.90;45.40;;;;;;4844446;29;20065;-85
2021/07/04 15:00:35;;;;;;;2.08;1.88;;;30.90;45.40;;;;;;4845109;29;20132;-86
2021/07/04 15:03:01;;;;;;;4.70;1.83;;;30.90;44.80;;;;;;4844430;29;20052;-86
2021/07/04 15:05:27;;;;;;;2.05;1.77;;;30.80;43.90;;;;;;4859805;29;20054;-86
2021/07/04 15:07:52;;;;;;;2.50;1.65;;;30.80;43.60;;;;;;4859172;29;20045;-86
2021/07/04 15:10:21;;;;;;;2.00;1.77;;;30.60;43.50;;;;;;4844407;29;20045;-86
2021/07/04 15:12:47;;;;;;;1.90;1.48;;;30.60;45.90;;;;;;4844675;29;20042;-86
2021/07/04 15:15:13;;;;;;;2.33;1.70;;;30.50;44.70;;;;;;4845201;29;20463;-86
2021/07/04 15:17:38;;;;;;;2.40;1.83;;;30.30;45.30;;;;;;4859396;29;20296;-86
2021/07/04 15:20:05;;;;;;;2.90;1.73;;;30.20;46.10;;;;;;4844628;29;20044;-86
2021/07/04 15:22:30;;;;;;;1.83;1.67;;;30.10;46.70;;;;;;4844930;29;20081;-85
2021/07/04 15:24:56;;;;;;;2.47;1.90;;;30.10;45.30;;;;;;4844339;29;20069;-85
2021/07/04 15:27:21;;;;;;;2.92;1.80;;;30.10;45.50;;;;;;4858875;29;20057;-85
2021/07/04 15:29:47;;;;;;;3.70;2.72;;;30.10;48.70;;;;;;4858929;29;20102;-85
2021/07/04 15:32:12;;;;;;;2.33;2.13;;;30.20;47.10;;;;;;4844987;29;20526;-86
2021/07/04 15:34:38;;;;;;;2.63;2.35;;;30.30;48.90;;;;;;4844766;29;20049;-86
2021/07/04 15:37:04;;;;;;;2.38;1.85;;;30.40;48.00;;;;;;4859104;29;20034;-86
2021/07/04 15:39:29;;;;;;;2.25;2.00;;;30.40;47.80;;;;;;4859122;29;20038;-86
2021/07/04 15:41:56;;;;;;;3.08;2.38;;;30.40;47.90;;;;;;4861087;29;20038;-86
2021/07/04 15:44:22;;;;;;;3.10;2.35;;;30.40;48.10;;;;;;4847428;29;20049;-85
2021/07/04 15:46:48;;;;;;;3.13;2.00;;;30.30;47.60;;;;;;4862624;29;20310;-85
2021/07/04 15:49:15;;;;;;;2.50;2.20;;;30.30;48.20;;;;;;4862422;29;20049;-86
2021/07/04 15:51:41;;;;;;;3.35;2.53;;;30.20;49.10;;;;;;4862257;29;20042;-86
2021/07/04 15:54:08;;;;;;;3.13;2.60;;;30.10;51.80;;;;;;4862427;29;20280;-86
2021/07/04 15:56:34;;;;;;;4.20;2.42;;;30.00;54.10;;;;;;4850321;29;20055;-86
2021/07/04 15:59:00;;;;;;;10.70;3.90;;;29.80;54.50;;;;;;4862058;29;20046;-86
2021/07/04 16:01:26;;;;;;;4.57;3.35;;;29.60;54.40;;;;;;4847432;29;20042;-86
2021/07/04 16:03:53;;;;;;;3.97;2.88;;;29.50;55.30;;;;;;4847539;29;20343;-86
2021/07/04 16:06:20;;;;;;;3.13;2.83;;;29.30;57.10;;;;;;4862076;29;20053;-87
2021/07/04 16:08:46;;;;;;;5.57;2.45;;;29.20;57.30;;;;;;4847428;29;20053;-86
2021/07/04 16:11:11;;;;;;;3.85;2.90;;;29.00;57.60;;;;;;4862057;29;20042;-86
2021/07/04 16:13:37;;;;;;;4.07;3.30;;;28.90;59.00;;;;;;4861931;29;20038;-86
2021/07/04 16:16:03;;;;;;;4.35;3.00;;;28.80;59.20;;;;;;4861897;29;20050;-86
2021/07/04 16:18:28;;;;;;;3.58;2.85;;;28.70;59.30;;;;;;4861987;29;20053;-85
2021/07/04 16:20:54;;;;;;;5.75;2.75;;;28.60;59.40;;;;;;4846880;29;20034;-85
2021/07/04 16:23:20;;;;;;;3.33;2.78;;;28.50;59.90;;;;;;4861657;29;20310;-85
2021/07/04 16:25:45;;;;;;;5.07;2.65;;;28.40;61.50;;;;;;4846789;29;20141;-85
2021/07/04 16:28:12;;;;;;;4.25;2.97;;;28.40;61.60;;;;;;4861678;29;20081;-85
2021/07/04 16:30:37;;;;;;;4.55;2.85;;;28.40;61.10;;;;;;4861705;29;20041;-85
2021/07/04 16:33:03;;;;;;;5.10;3.00;;;28.40;61.20;;;;;;4861523;29;20050;-86
2021/07/04 16:35:28;;;;;;;5.60;2.70;;;28.50;60.30;;;;;;4862122;29;20310;-85
2021/07/04 16:37:54;;;;;;;3.53;2.60;;;28.50;59.90;;;;;;4860855;29;20050;-85
2021/07/04 16:40:22;;;;;;;4.93;2.42;;;28.50;59.40;;;;;;4861733;29;20046;-85
2021/07/04 16:42:51;;;;;;;5.38;2.70;;;28.60;60.20;;;;;;4846828;29;20128;-85
2021/07/04 16:45:18;;;;;;;5.95;3.00;;;28.60;60.10;;;;;;4846832;29;20069;-85
2021/07/04 16:47:44;;;;;;;4.97;2.42;;;28.50;60.20;;;;;;4861401;29;20045;-85
2021/07/04 16:50:11;;;;;;;3.60;2.88;;;28.50;58.90;;;;;;4846827;29;20042;-85
2021/07/04 16:52:36;;;;;;;4.35;2.60;;;28.50;58.90;;;;;;4846697;29;20042;-86
2021/07/04 16:55:04;;;;;;;3.88;2.50;;;28.40;58.80;;;;;;4846514;29;20041;-86
2021/07/04 16:57:30;;;;;;;4.95;2.80;;;28.30;59.60;;;;;;4846011;29;20128;-86
2021/07/04 16:59:55;;;;;;;4.75;2.90;;;28.20;59.80;;;;;;4860830;29;20206;-86
2021/07/04 17:02:21;;;;;;;3.20;2.58;;;28.10;60.40;;;;;;4846960;29;20069;-86
2021/07/04 17:04:46;;;;;;;3.92;2.83;;;28.00;60.30;;;;;;4861454;29;20049;-86
2021/07/04 17:07:13;;;;;;;4.15;3.10;;;27.90;60.80;;;;;;4846156;29;20182;-85
2021/07/04 17:09:39;;;;;;;3.28;2.50;;;27.70;60.40;;;;;;4861646;29;20166;-87
2021/07/04 17:12:05;;;;;;;3.53;2.95;;;27.60;60.80;;;;;;4853839;29;20157;-87
2021/07/04 17:14:31;;;;;;;3.13;2.65;;;27.50;61.30;;;;;;4866117;29;20038;-86
2021/07/04 17:16:56;;;;;;;3.42;2.80;;;27.40;61.30;;;;;;4860317;29;20132;-87
2021/07/04 17:19:22;;;;;;;3.17;2.75;;;27.40;61.80;;;;;;4864306;29;20200;-87
2021/07/04 17:21:47;;;;;;;4.38;3.03;;;27.30;61.90;;;;;;4845775;29;20110;-87
2021/07/04 17:24:14;;;;;;;4.47;3.20;;;27.20;62.30;;;;;;4856863;29;20405;-87
2021/07/04 17:26:40;;;;;;;3.33;2.33;;;27.10;61.70;;;;;;4854957;29;20041;-87
2021/07/04 17:29:06;;;;;;;3.38;2.53;;;27.10;61.80;;;;;;4872365;29;20095;-87
2021/07/04 17:31:31;;;;;;;5.60;2.70;;;27.10;62.10;;;;;;4858849;29;20064;-88
2021/07/04 17:33:57;;;;;;;4.50;2.83;;;27.00;62.40;;;;;;4863491;29;20442;-87
2021/07/04 17:36:25;;;;;;;3.20;2.90;;;27.10;62.10;;;;;;4858772;29;20045;-88
2021/07/04 17:38:52;;;;;;;7.85;3.00;;;27.10;62.00;;;;;;4861805;29;20108;-89
2021/07/04 17:41:20;;;;;;;2.95;2.20;;;27.10;62.60;;;;;;4874899;29;20152;-88
2021/07/04 17:43:47;;;;;;;2.90;2.50;;;27.00;62.40;;;;;;4872614;29;20041;-88
2021/07/04 17:46:12;;;;;;;4.30;3.45;;;27.00;61.00;;;;;;4876534;29;20060;-87
2021/07/04 17:48:38;;;;;;;4.30;2.88;;;27.00;60.50;;;;;;4859851;29;20305;-87
2021/07/04 17:51:05;;;;;;;3.45;2.90;;;26.90;61.30;;;;;;4874892;29;20488;-87
2021/07/04 17:53:31;;;;;;;3.50;2.70;;;26.80;62.20;;;;;;4860151;29;20418;-87
2021/07/04 17:55:56;;;;;;;3.25;2.83;;;26.90;62.30;;;;;;4864699;29;20041;-87
2021/07/04 17:58:22;;;;;;;3.60;2.53;;;26.80;63.00;;;;;;4862562;29;20436;-87
2021/07/04 18:00:48;;;;;;;3.72;3.17;;;26.80;62.80;;;;;;4865052;29;20120;-88
2021/07/04 18:03:14;;;;;;;3.13;2.45;;;26.80;62.80;;;;;;4859652;29;20185;-87
2021/07/04 18:05:40;;;;;;;5.05;3.05;;;26.80;63.20;;;;;;4858763;29;20140;-87
2021/07/04 18:08:05;;;;;;;3.05;2.63;;;26.80;63.60;;;;;;4874077;29;20462;-88
2021/07/04 18:10:31;;;;;;;3.42;2.58;;;26.80;63.70;;;;;;4860087;29;20048;-88
2021/07/04 18:12:57;;;;;;;4.00;2.67;;;26.70;64.10;;;;;;4858835;29;20133;-87
2021/07/04 18:15:23;;;;;;;3.03;2.53;;;26.60;63.30;;;;;;4873199;29;20222;-88
2021/07/04 18:17:48;;;;;;;3.30;2.72;;;26.60;63.70;;;;;;4860424;29;20124;-88
2021/07/04 18:20:15;;;;;;;7.90;2.88;;;26.60;64.40;;;;;;4875329;29;20735;-87
2021/07/04 18:22:41;;;;;;;3.72;2.78;;;26.50;64.00;;;;;;4861558;29;20233;-88
2021/07/04 18:25:08;;;;;;;3.35;2.88;;;26.50;64.50;;;;;;4862287;29;20128;-88
2021/07/04 18:27:34;;;;;;;3.97;2.90;;;26.50;65.00;;;;;;4874728;29;20037;-87
2021/07/04 18:30:00;;;;;;;2.92;2.63;;;26.40;65.10;;;;;;4862504;29;20045;-87
2021/07/04 18:32:27;;;;;;;5.22;2.80;;;26.30;65.50;;;;;;4866375;29;20398;-87
2021/07/04 18:34:55;;;;;;;3.28;2.70;;;26.20;65.00;;;;;;4862441;29;20041;-88
2021/07/04 18:37:21;;;;;;;4.88;3.22;;;26.20;65.40;;;;;;4858951;29;20033;-87
2021/07/04 18:39:46;;;;;;;3.47;2.50;;;26.10;65.00;;;;;;4859306;29;20417;-88
2021/07/04 18:42:12;;;;;;;3.10;2.72;;;26.10;65.10;;;;;;4869243;29;20050;-89